LIMJ Información de aeropuertos

Información de pistas
Pista 10 Longitud 9564 ft Ancho 148 ft
Elevación 9 ft Umbral 0 ft Rumbo 105
Pista 28 Longitud 9564 ft Ancho 148 ft
Elevación 12 ft Umbral 528 ft Rumbo 285
Frecuencias
Tipo APP Nombre APP Frequencia 119.6 MHZ
Tipo ATIS Nombre ATIS Frequencia 122.825 MHZ
Tipo TWR Nombre TWR Frequencia 118.6 MHZ
Radioayudas
Tipo VOR-DME Nombre Genova Frequencia 112800 KHZ
Tipo NDB Nombre Genova Frequencia 318 KHZ
Tipo VOR-DME Nombre Genova Sestri Frequencia 108600 KHZ
Información meteorológica y NOTAM
ADDS - METARS form results

(0419 UTC 20 January 2021)
Data provider http://aviationweather.gov/metar/data/
 
METAR text: LIMJ 200350Z 17006KT 9999 FEW020 BKN050 12/07 Q1019
Conditions at: LIMJ (GENOVA/SESTRI , IT) observed 0350 UTC 20 January 2021
Temperature: 12.0°C (54°F)
Dewpoint: 7.0°C (45°F) [RH = 71%]
Pressure (altimeter): 30.09 inches Hg (1019.0 mb)
Winds: from the S (170 degrees) at 7 MPH (6 knots; 3.1 m/s)
Visibility: 6 or more miles (10+ km)
Ceiling: 5000 feet AGL
Clouds: few clouds at 2000 feet AGL
broken clouds at 5000 feet AGL
Weather: no significant weather observed at this time

METAR text: LIMJ 200320Z 21005KT 9999 FEW020 BKN050 12/08 Q1020
Conditions at: LIMJ (GENOVA/SESTRI , IT) observed 0320 UTC 20 January 2021
Temperature: 12.0°C (54°F)
Dewpoint: 8.0°C (46°F) [RH = 76%]
Pressure (altimeter): 30.12 inches Hg (1020.0 mb)
Winds: from the SSW (210 degrees) at 6 MPH (5 knots; 2.6 m/s)
Visibility: 6 or more miles (10+ km)
Ceiling: 5000 feet AGL
Clouds: few clouds at 2000 feet AGL
broken clouds at 5000 feet AGL
Weather: no significant weather observed at this time

Forecast for: LIMJ (GENOVA/SESTRI , IT)
Text: TAF LIMJ 192300Z 2000/2024 VRB06KT 9999 SCT030
Forecast period: 0000 UTC 20 January 2021 to 0000 UTC 21 January 2021
Forecast type: FROM: standard forecast or significant change
Winds: variable direction winds at 7 MPH (6 knots; 3.1 m/s)
Visibility: 6 or more miles (10+ km)
Ceiling: at least 12,000 feet AGL
Clouds: scattered clouds at 3000 feet AGL
Weather: no significant weather forecast for this period
Text: TEMPO 2009/2024 4000 SHRA
Forecast period: 0900 UTC 20 January 2021 to 0000 UTC 21 January 2021
Forecast type: TEMPORARY: The following changes expected for less than half the time period
Visibility: 2.49 miles (4.01 km)
Ceiling: unknown
Clouds: missing
Weather: SHRA  (rain showers)